GVAC/SID METAR and TAF weather

Enter ICAO airport designator
Station Type Date Time Source
GVAC METAR 2019/10/15 09:00 UTC NOAA

GVAC 150900Z 05011KT 8000 -DZ BKN013 BKN015 25/23 Q1012 RERA NOSIG


Station Type Date Time Source
GVAC Decoded METAR 2019/10/15 09:00 UTC NOAA

Sal, Cape Verde (GVAC) 16-44N 022-57W 55M
Oct 15, 2019 - 05:00 AM EDT / 2019.10.15 0900 UTC
Wind: from the NE (050 degrees) at 13 MPH (11 KT):0
Visibility: 4 mile(s):0
Sky conditions: mostly cloudy
Weather: light drizzle
Temperature: 77 F (25 C)
Dew Point: 73 F (23 C)
Relative Humidity: 88%
Pressure (altimeter): 29.88 in. Hg (1012 hPa)
ob: GVAC 150900Z 05011KT 8000 -DZ BKN013 BKN015 25/23 Q1012 RERA NOSIG
cycle: 9

Station Type Date Time Source
GVAC TAF 2019/10/15 06:57 UTC NOAA

TAF GVAC 150500Z 1506/1612 04018KT 3000 RA BKN013 OVC016 PROB40
TEMPO 1506/1512 1500 +TSRA BKN012 FEW014CB OVC016
BECMG 1517/1519 10018KT

Example: see airport list